Main page
METAR-TAF:

METAR-TAF

Airports :

Rouen, France

Rouen Airport

latitude: 49-23N, longitude: 001-11E, elevation: 157 m

Current weather observation

The report was made 17 minutes ago, at 07:00 UTC
Wind 12 kt from the East
Temperature 19°C
Humidity 64%
Pressure 1018 hPa
Visibility 10 km or more
no clouds below 1500 m and no cumulonimbus

METAR: LFOP 260700Z AUTO 10012KT CAVOK 19/12 Q1018 NOSIG

Time: 09:17 (07:17 UTC)

Forecast

The report was made 2 hours and 17 minutes ago, at 05:00 UTC
Forecast valid from 26 at 06 UTC to 27 at 06 UTC
Wind 10 kt from the East
Visibility 10 km or more
no clouds below 1500 m and no cumulonimbus
Becoming
from 27 at 00 UTC to 27 at 04 UTC
Wind 10 kt from the South/Southeast

TAF: LFOP 260500Z 2606/2706 09010KT CAVOK BECMG 2700/2704 15010KT

Weather observations and forecasts of more than 4000 airports (METAR and TAF reports).

The available stations are represented by yellow and red dots on the map.

Hover mouse over dot to see the name of the station.

Then click to see weather observations and forecasts.

To change the map : click on the green buttons with a black cross to zoom in, on the green button with a dash to zoom out, or on the green arrows for adjacent maps.


METAR-TAF: